createdAt,value
2023-03-04T00:00:11.202Z,6.00
2023-03-04T00:02:38.136Z,6.00
2023-03-04T00:05:05.338Z,6.00
2023-03-04T00:07:33.390Z,6.00
2023-03-04T00:10:03.598Z,6.00
2023-03-04T00:12:30.949Z,6.00
2023-03-04T00:14:57.848Z,6.00
2023-03-04T00:17:24.865Z,6.00
2023-03-04T00:19:51.769Z,6.00
2023-03-04T00:22:18.678Z,6.00
2023-03-04T00:24:45.568Z,6.00
2023-03-04T00:27:12.794Z,6.00
2023-03-04T00:29:39.732Z,6.00
2023-03-04T00:32:06.671Z,5.90
2023-03-04T00:34:33.653Z,5.90
2023-03-04T00:37:03.490Z,5.90
2023-03-04T00:39:30.831Z,5.90
2023-03-04T00:41:57.722Z,6.00
2023-03-04T00:44:24.702Z,6.00
2023-03-04T00:46:51.610Z,6.00
2023-03-04T00:49:18.503Z,6.00
2023-03-04T00:51:45.400Z,6.00
2023-03-04T00:54:12.302Z,6.00
2023-03-04T00:56:39.287Z,6.00
2023-03-04T00:59:06.163Z,6.00
2023-03-04T01:01:35.764Z,6.00
2023-03-04T01:04:03.386Z,6.00
2023-03-04T01:06:30.865Z,6.00
2023-03-04T01:08:57.871Z,6.00
2023-03-04T01:11:24.820Z,5.90
2023-03-04T01:13:51.731Z,5.90
2023-03-04T01:16:18.713Z,5.90
2023-03-04T01:18:47.272Z,5.90
2023-03-04T01:21:14.250Z,5.90
2023-03-04T01:23:41.168Z,6.00
2023-03-04T01:26:08.118Z,6.00
2023-03-04T01:28:36.010Z,5.90
2023-03-04T01:31:06.135Z,5.90
2023-03-04T01:33:33.455Z,5.80
2023-03-04T01:36:00.576Z,5.90
2023-03-04T01:38:27.494Z,5.90
2023-03-04T01:40:54.388Z,5.90
2023-03-04T01:43:24.005Z,5.90
2023-03-04T01:45:54.016Z,5.80
2023-03-04T01:48:31.746Z,5.90
2023-03-04T01:51:07.482Z,5.90
2023-03-04T01:53:34.386Z,5.80
2023-03-04T01:56:05.725Z,5.80
2023-03-04T01:58:35.685Z,5.80
2023-03-04T02:01:05.919Z,5.80
2023-03-04T02:03:35.345Z,5.80
2023-03-04T02:06:02.894Z,5.90
2023-03-04T02:08:29.906Z,5.90
2023-03-04T02:10:56.817Z,5.90
2023-03-04T02:13:23.695Z,5.90
2023-03-04T02:15:50.628Z,5.90
2023-03-04T02:18:24.689Z,5.90
2023-03-04T02:21:11.529Z,5.80
2023-03-04T02:23:38.413Z,5.80
2023-03-04T02:26:22.463Z,5.90
2023-03-04T02:28:50.698Z,5.90
2023-03-04T02:31:27.043Z,5.90
2023-03-04T02:33:55.387Z,5.80
2023-03-04T02:36:22.916Z,5.80
2023-03-04T02:38:54.015Z,5.80
2023-03-04T02:41:23.583Z,5.80
2023-03-04T02:43:54.210Z,5.80
2023-03-04T02:46:21.143Z,5.90
2023-03-04T02:48:48.156Z,5.90
2023-03-04T02:51:15.060Z,5.90
2023-03-04T02:53:42.148Z,5.90
2023-03-04T02:56:09.155Z,5.90
2023-03-04T02:58:36.101Z,5.90
2023-03-04T03:01:03.618Z,5.90
2023-03-04T03:03:30.919Z,5.90
2023-03-04T03:05:57.974Z,5.90
2023-03-04T03:08:24.869Z,5.90
2023-03-04T03:10:51.808Z,5.90
2023-03-04T03:13:19.331Z,5.90
2023-03-04T03:15:47.074Z,5.90
2023-03-04T03:18:15.376Z,5.90
2023-03-04T03:20:42.355Z,5.80
2023-03-04T03:23:09.329Z,5.90
2023-03-04T03:25:36.242Z,5.90
2023-03-04T03:28:03.601Z,5.90
2023-03-04T03:30:33.400Z,5.80
2023-03-04T03:33:09.016Z,5.80
2023-03-04T03:35:35.969Z,5.80
2023-03-04T03:38:05.927Z,5.90
2023-03-04T03:40:33.664Z,5.80
2023-03-04T03:43:00.943Z,5.80
2023-03-04T03:45:27.929Z,5.80
2023-03-04T03:47:54.976Z,5.80
2023-03-04T03:50:21.907Z,5.80
2023-03-04T03:52:48.787Z,5.80
2023-03-04T03:55:15.722Z,5.80
2023-03-04T03:57:42.659Z,5.80
2023-03-04T04:00:10.173Z,5.80
2023-03-04T04:02:37.213Z,5.80
2023-03-04T04:05:04.464Z,5.70
2023-03-04T04:07:33.916Z,5.80
2023-03-04T04:10:01.017Z,5.80
2023-03-04T04:12:27.990Z,5.80
2023-03-04T04:14:55.354Z,5.80
2023-03-04T04:17:22.252Z,5.80
2023-03-04T04:19:49.153Z,5.70
2023-03-04T04:22:17.925Z,5.70
2023-03-04T04:24:44.896Z,5.80
2023-03-04T04:27:11.867Z,5.70
2023-03-04T04:29:38.920Z,5.70
2023-03-04T04:32:06.176Z,5.80
2023-03-04T04:34:33.679Z,5.80
2023-03-04T04:37:00.917Z,5.70
2023-03-04T04:39:27.825Z,5.80
2023-03-04T04:41:54.705Z,5.80
2023-03-04T04:44:21.684Z,5.70
2023-03-04T06:02:51.966Z,5.90
2023-03-04T06:05:19.339Z,5.90
2023-03-04T06:07:46.408Z,5.80
2023-03-04T06:10:15.411Z,5.80
2023-03-04T06:12:45.256Z,5.80
2023-03-04T06:15:15.467Z,5.80
2023-03-04T06:17:45.718Z,5.80
2023-03-04T06:20:13.793Z,5.80
2023-03-04T06:22:40.787Z,5.80
2023-03-04T06:25:07.998Z,5.70
2023-03-04T06:27:34.964Z,5.70
2023-03-04T06:30:02.154Z,5.80
2023-03-04T06:32:29.097Z,5.80
2023-03-04T06:34:56.295Z,5.80
2023-03-04T06:37:23.336Z,5.80
2023-03-04T06:39:50.479Z,5.80
2023-03-04T06:42:17.484Z,5.80
2023-03-04T06:44:44.404Z,5.80
2023-03-04T06:47:11.850Z,5.80
2023-03-04T06:49:38.799Z,5.70
2023-03-04T06:52:05.878Z,5.70
2023-03-04T06:54:32.772Z,5.70
2023-03-04T06:56:59.669Z,5.70
2023-03-04T06:59:26.610Z,5.70
2023-03-04T07:01:53.508Z,5.70
2023-03-04T07:04:20.647Z,5.70
2023-03-04T07:06:47.561Z,5.70
2023-03-04T07:09:14.501Z,5.80
2023-03-04T07:11:44.019Z,5.80
2023-03-04T07:14:11.061Z,5.80
2023-03-04T07:16:38.037Z,5.80
2023-03-04T07:19:05.035Z,5.80
2023-03-04T07:21:31.961Z,5.80
2023-03-04T07:23:58.863Z,5.90
2023-03-04T07:26:25.804Z,5.90
2023-03-04T07:28:54.597Z,5.90
2023-03-04T07:31:29.993Z,5.90
2023-03-04T07:34:05.284Z,5.80
2023-03-04T07:36:33.060Z,5.90
2023-03-04T07:38:59.948Z,5.90
2023-03-04T07:41:28.435Z,5.90
2023-03-04T07:43:57.046Z,5.90
2023-03-04T07:46:24.254Z,5.80
2023-03-04T07:48:51.186Z,5.90
2023-03-04T07:51:22.595Z,5.90
2023-03-04T07:53:51.751Z,6.00
2023-03-04T07:56:24.617Z,6.00
2023-03-04T07:58:54.274Z,6.00
2023-03-04T08:01:23.833Z,6.00
2023-03-04T08:03:50.795Z,6.00
2023-03-04T08:06:19.473Z,6.10
2023-03-04T08:08:46.773Z,6.10
2023-03-04T08:11:16.611Z,6.00
2023-03-04T08:13:43.960Z,6.10
2023-03-04T08:16:15.624Z,6.10
2023-03-04T08:18:48.250Z,6.10
2023-03-04T08:21:18.465Z,6.20
2023-03-04T08:23:46.129Z,6.20
2023-03-04T08:26:24.405Z,6.30
2023-03-04T08:28:52.034Z,6.30
2023-03-04T08:31:24.086Z,6.40
2023-03-04T08:33:51.407Z,6.60
2023-03-04T08:36:18.537Z,6.70
2023-03-04T08:38:45.426Z,6.90
2023-03-04T08:41:15.708Z,6.80
2023-03-04T08:43:43.521Z,6.80
2023-03-04T08:46:10.499Z,6.90
2023-03-04T08:48:38.188Z,6.90
2023-03-04T08:51:14.071Z,7.00
2023-03-04T08:53:42.965Z,7.20
2023-03-04T08:56:10.525Z,7.20
2023-03-04T08:58:37.510Z,7.10
2023-03-04T09:01:05.469Z,7.10
2023-03-04T09:03:32.451Z,7.00
2023-03-04T09:05:59.624Z,6.90
2023-03-04T09:08:26.536Z,6.90
2023-03-04T09:10:54.544Z,6.90
2023-03-04T09:13:25.811Z,6.70
2023-03-04T09:15:53.749Z,6.60
2023-03-04T09:18:21.713Z,6.60
2023-03-04T09:20:48.644Z,6.70
2023-03-04T09:23:15.759Z,6.70
2023-03-04T09:25:43.755Z,6.70
2023-03-04T09:28:12.501Z,6.70
2023-03-04T09:30:39.629Z,6.80
2023-03-04T09:33:06.516Z,6.70
2023-03-04T09:35:33.453Z,6.70
2023-03-04T09:38:00.414Z,6.70
2023-03-04T09:40:29.790Z,6.70
2023-03-04T09:42:59.553Z,6.80
2023-03-04T09:45:31.330Z,6.70
2023-03-04T09:47:58.250Z,6.70
2023-03-04T09:50:25.184Z,6.70
2023-03-04T09:52:58.105Z,6.70
2023-03-04T09:55:29.187Z,6.70
2023-03-04T09:58:14.039Z,6.90
2023-03-04T10:00:57.072Z,7.10
2023-03-04T10:03:25.958Z,7.40
2023-03-04T10:06:13.633Z,7.60
2023-03-04T10:08:43.406Z,7.60
2023-03-04T10:11:21.481Z,7.50
2023-03-04T10:14:05.139Z,7.50
2023-03-04T10:17:00.725Z,7.20
2023-03-04T10:19:43.491Z,7.20
2023-03-04T10:22:21.443Z,7.10
2023-03-04T10:24:48.471Z,7.10
2023-03-04T10:27:17.199Z,7.00
2023-03-04T10:29:44.149Z,6.90
2023-03-04T10:32:19.350Z,6.90
2023-03-04T10:34:46.767Z,6.90
2023-03-04T10:37:13.874Z,7.00
2023-03-04T10:39:45.852Z,7.10
2023-03-04T10:42:15.763Z,7.30
2023-03-04T10:44:57.171Z,7.40
2023-03-04T10:47:25.547Z,7.50
2023-03-04T10:49:54.343Z,7.40
2023-03-04T10:52:27.859Z,7.50
2023-03-04T10:54:58.960Z,7.40
2023-03-04T10:57:35.891Z,7.40
2023-03-04T11:00:26.372Z,7.20
2023-03-04T11:02:53.282Z,7.10
2023-03-04T11:05:26.246Z,7.10
2023-03-04T11:07:58.887Z,7.00
2023-03-04T11:10:38.241Z,7.00
2023-03-04T11:13:11.114Z,7.00
2023-03-04T11:15:51.717Z,7.00
2023-03-04T11:18:32.300Z,7.10
2023-03-04T11:20:59.221Z,7.30
2023-03-04T11:23:44.600Z,7.30
2023-03-04T11:26:24.126Z,7.40
2023-03-04T11:28:54.060Z,7.50
2023-03-04T11:31:32.531Z,7.50
2023-03-04T11:34:16.536Z,7.50
2023-03-04T11:36:57.381Z,7.40
2023-03-04T11:39:31.998Z,7.40
2023-03-04T11:42:01.805Z,7.40
2023-03-04T11:44:29.725Z,7.30
2023-03-04T11:47:23.180Z,7.30
2023-03-04T11:50:14.997Z,7.10
2023-03-04T11:52:50.740Z,7.10
2023-03-04T11:55:31.640Z,7.00
2023-03-04T11:58:26.348Z,7.00
2023-03-04T12:01:07.283Z,7.00
2023-03-04T12:03:57.682Z,7.00
2023-03-04T12:06:39.962Z,7.00
2023-03-04T12:09:44.995Z,7.10
2023-03-04T12:12:30.188Z,7.20
2023-03-04T12:15:33.732Z,7.30
2023-03-04T12:18:16.306Z,7.40
2023-03-04T12:21:07.350Z,7.30
2023-03-04T12:24:02.913Z,7.40
2023-03-04T12:26:40.966Z,7.50
2023-03-04T12:29:31.396Z,7.60
2023-03-04T12:32:02.244Z,7.60
2023-03-04T12:34:32.490Z,7.50
2023-03-04T12:37:10.058Z,7.50
2023-03-04T12:40:06.212Z,7.50
2023-03-04T12:42:38.213Z,7.50
2023-03-04T12:45:14.210Z,7.50
2023-03-04T12:48:02.670Z,7.50
2023-03-04T12:50:31.705Z,7.40
2023-03-04T12:53:07.747Z,7.50
2023-03-04T12:55:40.103Z,7.50
2023-03-04T12:58:07.267Z,7.50
2023-03-04T13:01:13.103Z,7.60
2023-03-04T13:04:02.844Z,7.60
2023-03-04T13:06:34.995Z,7.50
2023-03-04T13:09:07.723Z,7.50
2023-03-04T13:11:52.575Z,7.30
2023-03-04T13:14:25.102Z,7.30
2023-03-04T13:16:54.301Z,7.30
2023-03-04T13:19:43.559Z,7.30
2023-03-04T13:22:30.025Z,7.30
2023-03-04T13:24:57.830Z,7.40
2023-03-04T13:28:06.157Z,7.50
2023-03-04T13:30:33.517Z,7.60
2023-03-04T13:33:09.438Z,7.70
2023-03-04T13:36:00.822Z,7.70
2023-03-04T13:38:27.717Z,7.70
2023-03-04T13:41:00.437Z,7.60
2023-03-04T13:43:41.837Z,7.60
2023-03-04T13:46:29.757Z,7.50
2023-03-04T13:49:02.231Z,7.40
2023-03-04T13:51:46.206Z,7.30
2023-03-04T13:54:19.286Z,7.20
2023-03-04T13:57:01.479Z,7.20
2023-03-04T13:59:39.486Z,7.20
2023-03-04T14:02:22.700Z,7.10
2023-03-04T14:05:00.817Z,7.10
2023-03-04T14:07:27.621Z,7.10
2023-03-04T14:10:15.099Z,7.20
2023-03-04T14:12:45.838Z,7.30
2023-03-04T14:15:15.701Z,7.30
2023-03-04T14:17:47.427Z,7.30
2023-03-04T14:20:34.023Z,7.40
2023-03-04T14:23:02.142Z,7.40
2023-03-04T14:25:35.499Z,7.50
2023-03-04T14:28:17.685Z,7.40
2023-03-04T14:30:55.356Z,7.40
2023-03-04T14:33:27.187Z,7.40
2023-03-04T14:35:56.855Z,7.50
2023-03-04T14:38:31.038Z,7.50
2023-03-04T14:41:06.966Z,7.60
2023-03-04T14:43:59.355Z,7.60
2023-03-04T14:46:28.604Z,7.60
2023-03-04T14:48:55.584Z,7.60
2023-03-04T14:51:41.787Z,7.60
2023-03-04T14:54:28.767Z,7.50
2023-03-04T14:56:55.993Z,7.50
2023-03-04T14:59:49.120Z,7.50
2023-03-04T15:02:31.477Z,7.40
2023-03-04T15:05:00.689Z,7.40
2023-03-04T15:07:31.889Z,7.30
2023-03-04T15:09:58.889Z,7.30
2023-03-04T15:12:30.951Z,7.30
2023-03-04T15:14:59.231Z,7.30
2023-03-04T15:17:37.480Z,7.30
2023-03-04T15:20:07.470Z,7.30
2023-03-04T15:22:35.742Z,7.30
2023-03-04T15:25:02.872Z,7.20
2023-03-04T15:27:30.667Z,7.20
2023-03-04T15:29:59.491Z,7.20
2023-03-04T15:32:27.228Z,7.20
2023-03-04T15:34:54.209Z,7.20
2023-03-04T15:37:23.772Z,7.30
2023-03-04T15:39:50.809Z,7.10
2023-03-04T15:42:17.822Z,7.10
2023-03-04T15:44:44.852Z,7.10
2023-03-04T15:47:13.917Z,7.10
2023-03-04T15:49:41.862Z,6.90
2023-03-04T15:52:21.467Z,6.90
2023-03-04T15:54:48.536Z,6.90
2023-03-04T15:57:24.399Z,6.90
2023-03-04T15:59:51.843Z,6.80
2023-03-04T16:02:24.057Z,6.80
2023-03-04T16:04:51.199Z,6.80
2023-03-04T16:07:24.270Z,6.80
2023-03-04T16:09:55.608Z,6.80
2023-03-04T16:12:22.569Z,6.80
2023-03-04T16:14:50.083Z,6.80
2023-03-04T16:17:17.059Z,6.70
2023-03-04T16:19:44.123Z,6.70
2023-03-04T16:22:15.227Z,6.70
2023-03-04T16:24:42.930Z,6.70
2023-03-04T16:27:14.336Z,6.50
2023-03-04T16:29:41.813Z,6.50
2023-03-04T16:32:09.499Z,6.30
2023-03-04T16:34:36.522Z,6.30
2023-03-04T16:37:06.746Z,6.30
2023-03-04T16:39:33.709Z,6.30
2023-03-04T16:42:00.627Z,6.30
2023-03-04T16:44:27.620Z,6.30
2023-03-04T16:46:54.574Z,6.30
2023-03-04T16:49:21.646Z,6.20
2023-03-04T16:51:49.455Z,6.30
2023-03-04T16:54:19.089Z,6.20
2023-03-04T16:56:45.982Z,6.20
2023-03-04T16:59:16.516Z,6.20
2023-03-04T17:01:43.929Z,6.20
2023-03-04T17:04:10.899Z,6.20
2023-03-04T17:06:38.601Z,6.20
2023-03-04T17:09:07.075Z,6.20
2023-03-04T17:11:34.053Z,6.10
2023-03-04T17:14:00.965Z,6.10
2023-03-04T17:16:27.978Z,6.00
2023-03-04T17:18:55.159Z,5.90
2023-03-04T17:21:26.519Z,6.00
2023-03-04T17:23:54.077Z,6.10
2023-03-04T17:26:22.677Z,6.00
2023-03-04T17:28:50.461Z,6.00
2023-03-04T17:31:19.610Z,6.00
2023-03-04T17:33:46.969Z,5.90
2023-03-04T17:36:14.723Z,5.90
2023-03-04T17:38:41.934Z,5.90
2023-03-04T17:41:13.564Z,5.90
2023-03-04T17:43:45.532Z,5.90
2023-03-04T17:46:14.259Z,5.90
2023-03-04T17:48:43.688Z,5.90
2023-03-04T17:51:10.783Z,5.80
2023-03-04T17:53:38.229Z,5.90
2023-03-04T17:56:08.063Z,5.90
2023-03-04T17:58:36.222Z,5.90
2023-03-04T18:01:16.831Z,5.90
2023-03-04T18:03:44.231Z,5.90
2023-03-04T18:06:13.712Z,5.90
2023-03-04T18:08:40.776Z,5.90
2023-03-04T18:11:07.740Z,5.90
2023-03-04T18:13:34.657Z,5.90
2023-03-04T18:16:01.664Z,5.90
2023-03-04T18:18:28.584Z,5.90
2023-03-04T18:20:59.488Z,5.80
2023-03-04T18:23:29.704Z,5.80
2023-03-04T18:25:57.001Z,5.80
2023-03-04T18:28:24.067Z,5.80
2023-03-04T18:30:51.936Z,5.70
2023-03-04T18:33:19.141Z,5.70
2023-03-04T18:35:46.051Z,5.50
2023-03-04T18:38:13.457Z,5.50
2023-03-04T18:40:43.367Z,5.50
2023-03-04T18:43:10.264Z,5.50
2023-03-04T18:45:37.203Z,5.50
2023-03-04T18:48:04.264Z,5.50
2023-03-04T18:50:31.152Z,5.50
2023-03-04T18:52:58.052Z,5.40
2023-03-04T18:55:25.044Z,5.50
2023-03-04T18:57:52.702Z,5.30
2023-03-04T19:00:23.379Z,5.30
2023-03-04T19:02:57.110Z,5.40
2023-03-04T19:05:27.431Z,5.40
2023-03-04T19:07:54.835Z,5.40
2023-03-04T19:10:22.123Z,5.40
2023-03-04T19:12:49.191Z,5.40
2023-03-04T19:15:16.238Z,5.50
2023-03-04T19:17:45.869Z,5.40
2023-03-04T19:20:13.889Z,5.40
2023-03-04T19:22:40.991Z,5.40
2023-03-04T19:25:08.793Z,5.30
2023-03-04T19:27:36.512Z,5.30
2023-03-04T19:30:04.585Z,5.40
2023-03-04T19:32:31.535Z,5.40
2023-03-04T19:34:58.496Z,5.40
2023-03-04T19:37:25.478Z,5.40
2023-03-04T19:39:54.468Z,5.30
2023-03-04T19:42:21.618Z,5.40
2023-03-04T19:44:48.627Z,5.40
2023-03-04T19:47:15.644Z,5.40
2023-03-04T19:49:43.172Z,5.30
2023-03-04T19:52:10.079Z,5.30
2023-03-04T19:54:37.025Z,5.30
2023-03-04T19:57:04.052Z,5.30
2023-03-04T19:59:30.959Z,5.30
2023-03-04T20:01:59.767Z,5.30
2023-03-04T20:04:26.708Z,5.30
2023-03-04T20:06:53.652Z,5.20
2023-03-04T20:09:20.578Z,5.20
2023-03-04T20:11:57.567Z,5.20
2023-03-04T20:14:25.800Z,5.10
2023-03-04T20:16:52.725Z,5.00
2023-03-04T20:19:19.645Z,5.00
2023-03-04T20:21:46.571Z,4.90
2023-03-04T20:24:15.114Z,4.90
2023-03-04T20:26:42.153Z,4.90
2023-03-04T20:29:09.108Z,4.90
2023-03-04T20:31:38.348Z,4.90
2023-03-04T20:34:06.094Z,4.80
2023-03-04T20:36:33.237Z,4.80
2023-03-04T20:39:02.758Z,4.80
2023-03-04T20:41:31.628Z,4.80
2023-03-04T20:43:58.534Z,4.80
2023-03-04T20:46:45.333Z,4.80
2023-03-04T20:49:15.196Z,4.80
2023-03-04T20:51:45.375Z,4.70
2023-03-04T20:54:13.427Z,4.70
2023-03-04T20:56:42.195Z,4.80
2023-03-04T20:59:10.638Z,4.70
2023-03-04T21:01:40.083Z,4.80
2023-03-04T21:04:07.481Z,4.80
2023-03-04T21:06:34.495Z,4.80
2023-03-04T21:09:04.217Z,4.80
2023-03-04T21:11:31.236Z,4.80
2023-03-04T21:13:58.177Z,4.80
2023-03-04T21:16:27.436Z,4.90
2023-03-04T21:18:54.398Z,4.90
2023-03-04T21:21:23.539Z,5.00
2023-03-04T21:23:51.276Z,4.90
2023-03-04T21:26:18.817Z,4.90
2023-03-04T21:28:46.280Z,4.90
2023-03-04T21:31:18.177Z,4.90
2023-03-04T21:33:45.481Z,4.90
2023-03-04T21:36:15.988Z,4.90
2023-03-04T21:38:46.150Z,5.00
2023-03-04T21:41:14.842Z,4.90
2023-03-04T21:43:41.900Z,4.90
2023-03-04T21:46:09.837Z,4.90
2023-03-04T21:48:36.979Z,4.80
2023-03-04T21:51:08.222Z,4.80
2023-03-04T21:53:35.646Z,4.80
2023-03-04T21:56:03.095Z,4.80
2023-03-04T21:58:30.284Z,4.80
2023-03-04T22:00:59.168Z,4.70
2023-03-04T22:03:27.296Z,4.70
2023-03-04T22:05:54.269Z,4.60
2023-03-04T22:08:21.256Z,4.60
2023-03-04T22:10:48.495Z,4.70
2023-03-04T22:13:15.958Z,4.70
2023-03-04T22:15:46.060Z,4.70
2023-03-04T22:18:14.080Z,4.80
2023-03-04T22:20:43.886Z,4.60
2023-03-04T22:23:11.696Z,4.60
2023-03-04T22:25:39.802Z,4.60
2023-03-04T22:28:06.999Z,4.60
2023-03-04T22:30:34.934Z,4.70
2023-03-04T22:33:01.876Z,4.70
2023-03-04T22:35:28.862Z,4.70
2023-03-04T22:37:55.769Z,4.70
2023-03-04T22:40:22.708Z,4.70
2023-03-04T22:42:49.698Z,4.60
2023-03-04T22:45:17.962Z,4.60
2023-03-04T22:47:52.214Z,4.60
2023-03-04T22:50:20.204Z,4.60
2023-03-04T22:52:47.742Z,4.60
2023-03-04T22:55:16.194Z,4.60
2023-03-04T22:57:43.913Z,4.50
2023-03-04T23:00:24.233Z,4.50
2023-03-04T23:02:51.635Z,4.60
2023-03-04T23:05:21.047Z,4.60
2023-03-04T23:07:49.404Z,4.50
2023-03-04T23:10:19.868Z,4.50
2023-03-04T23:12:46.754Z,4.40
2023-03-04T23:15:15.744Z,4.30
2023-03-04T23:17:46.155Z,4.40
2023-03-04T23:20:19.465Z,4.40
2023-03-04T23:22:48.168Z,4.40
2023-03-04T23:25:16.103Z,4.40
2023-03-04T23:27:46.064Z,4.30
2023-03-04T23:30:17.015Z,4.30
2023-03-04T23:32:46.996Z,4.30
2023-03-04T23:35:14.292Z,4.20
2023-03-04T23:37:43.612Z,4.30
2023-03-04T23:40:14.591Z,4.40
2023-03-04T23:42:42.169Z,4.30
2023-03-04T23:45:10.036Z,4.40
2023-03-04T23:47:37.029Z,4.40
2023-03-04T23:50:05.180Z,4.40
2023-03-04T23:52:33.210Z,4.50
2023-03-04T23:55:00.199Z,4.40
2023-03-04T23:57:27.090Z,4.50
2023-03-04T23:59:53.995Z,4.50
